sensor_id;sensor_type;location;lat;lon;timestamp;P1;durP1;ratioP1;P2;durP2;ratioP2
66669;SDS011;53568;52.164;4.472;2023-01-25T00:01:20;58.06;;;51.67;;
66669;SDS011;53568;52.164;4.472;2023-01-25T00:03:46;56.82;;;51.03;;
66669;SDS011;53568;52.164;4.472;2023-01-25T00:06:11;56.34;;;50.14;;
66669;SDS011;53568;52.164;4.472;2023-01-25T00:08:37;58.28;;;51.46;;
66669;SDS011;53568;52.164;4.472;2023-01-25T00:11:03;55.02;;;49.73;;
66669;SDS011;53568;52.164;4.472;2023-01-25T00:13:29;55.65;;;50.11;;
66669;SDS011;53568;52.164;4.472;2023-01-25T00:16:01;55.39;;;49.79;;
66669;SDS011;53568;52.164;4.472;2023-01-25T00:18:27;55.70;;;50.49;;
66669;SDS011;53568;52.164;4.472;2023-01-25T00:20:53;55.97;;;50.53;;
66669;SDS011;53568;52.164;4.472;2023-01-25T00:23:18;55.36;;;49.75;;
66669;SDS011;53568;52.164;4.472;2023-01-25T00:25:44;56.19;;;50.51;;
66669;SDS011;53568;52.164;4.472;2023-01-25T00:28:09;55.41;;;49.91;;
66669;SDS011;53568;52.164;4.472;2023-01-25T00:30:35;56.28;;;50.74;;
66669;SDS011;53568;52.164;4.472;2023-01-25T00:35:45;55.10;;;49.74;;
66669;SDS011;53568;52.164;4.472;2023-01-25T00:41:06;55.08;;;49.74;;
66669;SDS011;53568;52.164;4.472;2023-01-25T00:43:34;54.88;;;49.62;;
66669;SDS011;53568;52.164;4.472;2023-01-25T00:46:00;57.46;;;51.17;;
66669;SDS011;53568;52.164;4.472;2023-01-25T00:48:26;55.66;;;50.06;;
66669;SDS011;53568;52.164;4.472;2023-01-25T00:50:51;56.60;;;50.98;;
66669;SDS011;53568;52.164;4.472;2023-01-25T00:53:17;55.99;;;50.74;;
66669;SDS011;53568;52.164;4.472;2023-01-25T00:55:50;56.59;;;50.80;;
66669;SDS011;53568;52.164;4.472;2023-01-25T00:58:18;56.06;;;50.60;;
66669;SDS011;53568;52.164;4.472;2023-01-25T01:00:44;56.36;;;50.52;;
66669;SDS011;53568;52.164;4.472;2023-01-25T01:03:09;56.02;;;50.13;;
66669;SDS011;53568;52.164;4.472;2023-01-25T01:05:35;55.69;;;50.24;;
66669;SDS011;53568;52.164;4.472;2023-01-25T01:08:01;55.15;;;49.93;;
66669;SDS011;53568;52.164;4.472;2023-01-25T01:10:26;54.99;;;49.79;;
66669;SDS011;53568;52.164;4.472;2023-01-25T01:12:52;55.92;;;50.25;;
66669;SDS011;53568;52.164;4.472;2023-01-25T01:15:18;56.06;;;50.22;;
66669;SDS011;53568;52.164;4.472;2023-01-25T01:17:43;55.78;;;50.16;;
66669;SDS011;53568;52.164;4.472;2023-01-25T01:20:09;59.35;;;52.15;;
66669;SDS011;53568;52.164;4.472;2023-01-25T01:22:35;58.44;;;51.42;;
66669;SDS011;53568;52.164;4.472;2023-01-25T01:25:01;58.04;;;51.17;;
66669;SDS011;53568;52.164;4.472;2023-01-25T01:27:26;55.63;;;50.11;;
66669;SDS011;53568;52.164;4.472;2023-01-25T01:29:52;59.52;;;52.34;;
66669;SDS011;53568;52.164;4.472;2023-01-25T01:32:17;57.52;;;51.05;;
66669;SDS011;53568;52.164;4.472;2023-01-25T01:34:43;58.10;;;51.20;;
66669;SDS011;53568;52.164;4.472;2023-01-25T01:37:08;59.20;;;52.18;;
66669;SDS011;53568;52.164;4.472;2023-01-25T01:39:34;59.88;;;52.77;;
66669;SDS011;53568;52.164;4.472;2023-01-25T01:41:59;58.54;;;51.81;;
66669;SDS011;53568;52.164;4.472;2023-01-25T01:47:27;58.05;;;51.58;;
66669;SDS011;53568;52.164;4.472;2023-01-25T01:50:16;56.69;;;50.47;;
66669;SDS011;53568;52.164;4.472;2023-01-25T01:52:47;56.44;;;50.38;;
66669;SDS011;53568;52.164;4.472;2023-01-25T01:55:15;57.47;;;50.77;;
66669;SDS011;53568;52.164;4.472;2023-01-25T01:57:50;55.07;;;49.57;;
66669;SDS011;53568;52.164;4.472;2023-01-25T02:00:22;57.46;;;51.32;;
66669;SDS011;53568;52.164;4.472;2023-01-25T02:02:52;56.06;;;50.03;;
66669;SDS011;53568;52.164;4.472;2023-01-25T02:05:44;57.14;;;50.84;;
66669;SDS011;53568;52.164;4.472;2023-01-25T02:08:05;57.20;;;50.63;;
66669;SDS011;53568;52.164;4.472;2023-01-25T02:10:35;55.28;;;49.56;;
66669;SDS011;53568;52.164;4.472;2023-01-25T02:13:03;56.34;;;50.41;;
66669;SDS011;53568;52.164;4.472;2023-01-25T02:15:32;57.35;;;50.68;;
66669;SDS011;53568;52.164;4.472;2023-01-25T02:18:06;56.70;;;50.46;;
66669;SDS011;53568;52.164;4.472;2023-01-25T02:20:41;56.66;;;50.68;;
66669;SDS011;53568;52.164;4.472;2023-01-25T02:25:43;57.65;;;50.88;;
66669;SDS011;53568;52.164;4.472;2023-01-25T02:30:44;57.80;;;51.58;;
66669;SDS011;53568;52.164;4.472;2023-01-25T02:33:14;57.77;;;51.39;;
66669;SDS011;53568;52.164;4.472;2023-01-25T02:35:42;61.39;;;53.26;;
66669;SDS011;53568;52.164;4.472;2023-01-25T02:38:12;58.04;;;51.25;;
66669;SDS011;53568;52.164;4.472;2023-01-25T02:40:48;57.88;;;51.15;;
66669;SDS011;53568;52.164;4.472;2023-01-25T02:43:20;59.02;;;52.00;;
66669;SDS011;53568;52.164;4.472;2023-01-25T02:45:54;59.02;;;52.15;;
66669;SDS011;53568;52.164;4.472;2023-01-25T02:48:30;57.94;;;51.44;;
66669;SDS011;53568;52.164;4.472;2023-01-25T02:50:55;58.41;;;51.60;;
66669;SDS011;53568;52.164;4.472;2023-01-25T02:53:21;56.99;;;50.64;;
66669;SDS011;53568;52.164;4.472;2023-01-25T02:55:46;57.17;;;50.91;;
66669;SDS011;53568;52.164;4.472;2023-01-25T02:58:12;58.89;;;52.03;;
66669;SDS011;53568;52.164;4.472;2023-01-25T03:00:37;59.24;;;51.87;;
66669;SDS011;53568;52.164;4.472;2023-01-25T03:03:03;58.83;;;51.69;;
66669;SDS011;53568;52.164;4.472;2023-01-25T03:05:28;57.38;;;51.11;;
66669;SDS011;53568;52.164;4.472;2023-01-25T03:07:54;58.56;;;51.10;;
66669;SDS011;53568;52.164;4.472;2023-01-25T03:10:19;56.33;;;49.93;;
66669;SDS011;53568;52.164;4.472;2023-01-25T03:12:45;55.73;;;49.26;;
66669;SDS011;53568;52.164;4.472;2023-01-25T03:15:10;55.42;;;49.39;;
66669;SDS011;53568;52.164;4.472;2023-01-25T03:17:36;54.30;;;48.40;;
66669;SDS011;53568;52.164;4.472;2023-01-25T03:20:01;57.75;;;50.75;;
66669;SDS011;53568;52.164;4.472;2023-01-25T03:22:27;56.82;;;50.03;;
66669;SDS011;53568;52.164;4.472;2023-01-25T03:24:52;57.63;;;50.20;;
66669;SDS011;53568;52.164;4.472;2023-01-25T03:27:18;59.91;;;51.87;;
66669;SDS011;53568;52.164;4.472;2023-01-25T03:29:44;57.59;;;50.61;;
66669;SDS011;53568;52.164;4.472;2023-01-25T03:32:10;57.49;;;50.72;;
66669;SDS011;53568;52.164;4.472;2023-01-25T03:34:36;58.44;;;51.41;;
66669;SDS011;53568;52.164;4.472;2023-01-25T03:37:01;57.29;;;50.75;;
66669;SDS011;53568;52.164;4.472;2023-01-25T03:39:27;56.17;;;50.25;;
66669;SDS011;53568;52.164;4.472;2023-01-25T03:41:53;57.15;;;50.86;;
66669;SDS011;53568;52.164;4.472;2023-01-25T03:44:19;58.18;;;51.27;;
66669;SDS011;53568;52.164;4.472;2023-01-25T03:46:44;59.67;;;51.91;;
66669;SDS011;53568;52.164;4.472;2023-01-25T03:49:10;58.31;;;51.36;;
66669;SDS011;53568;52.164;4.472;2023-01-25T03:51:36;58.89;;;51.46;;
66669;SDS011;53568;52.164;4.472;2023-01-25T03:54:02;60.49;;;52.57;;
66669;SDS011;53568;52.164;4.472;2023-01-25T03:56:28;58.83;;;51.72;;
66669;SDS011;53568;52.164;4.472;2023-01-25T03:58:54;59.24;;;51.74;;
66669;SDS011;53568;52.164;4.472;2023-01-25T04:01:19;60.20;;;52.93;;
66669;SDS011;53568;52.164;4.472;2023-01-25T04:03:45;59.93;;;52.63;;
66669;SDS011;53568;52.164;4.472;2023-01-25T04:06:10;57.92;;;51.17;;
66669;SDS011;53568;52.164;4.472;2023-01-25T04:08:36;60.77;;;52.66;;
66669;SDS011;53568;52.164;4.472;2023-01-25T04:11:03;57.14;;;50.67;;
66669;SDS011;53568;52.164;4.472;2023-01-25T04:13:31;56.56;;;50.04;;
66669;SDS011;53568;52.164;4.472;2023-01-25T04:15:59;59.41;;;51.64;;
66669;SDS011;53568;52.164;4.472;2023-01-25T04:18:25;57.93;;;50.91;;
66669;SDS011;53568;52.164;4.472;2023-01-25T04:20:54;57.48;;;50.88;;
66669;SDS011;53568;52.164;4.472;2023-01-25T04:23:21;62.46;;;53.75;;
66669;SDS011;53568;52.164;4.472;2023-01-25T04:28:20;60.93;;;53.43;;
66669;SDS011;53568;52.164;4.472;2023-01-25T04:30:45;61.49;;;53.46;;
66669;SDS011;53568;52.164;4.472;2023-01-25T04:33:11;59.56;;;52.15;;
66669;SDS011;53568;52.164;4.472;2023-01-25T04:35:37;61.77;;;53.59;;
66669;SDS011;53568;52.164;4.472;2023-01-25T04:38:03;60.81;;;53.27;;
66669;SDS011;53568;52.164;4.472;2023-01-25T04:40:29;60.49;;;53.37;;
66669;SDS011;53568;52.164;4.472;2023-01-25T04:42:55;63.38;;;54.80;;
66669;SDS011;53568;52.164;4.472;2023-01-25T04:45:21;64.10;;;55.64;;
66669;SDS011;53568;52.164;4.472;2023-01-25T04:47:48;62.90;;;55.05;;
66669;SDS011;53568;52.164;4.472;2023-01-25T04:50:14;62.87;;;55.05;;
66669;SDS011;53568;52.164;4.472;2023-01-25T04:52:40;61.72;;;54.39;;
66669;SDS011;53568;52.164;4.472;2023-01-25T04:55:06;64.58;;;55.84;;
66669;SDS011;53568;52.164;4.472;2023-01-25T04:57:32;64.22;;;56.13;;
66669;SDS011;53568;52.164;4.472;2023-01-25T04:59:58;61.97;;;55.16;;
66669;SDS011;53568;52.164;4.472;2023-01-25T05:02:23;64.55;;;56.47;;
66669;SDS011;53568;52.164;4.472;2023-01-25T05:04:50;63.77;;;55.95;;
66669;SDS011;53568;52.164;4.472;2023-01-25T05:07:16;63.82;;;55.64;;
66669;SDS011;53568;52.164;4.472;2023-01-25T05:09:41;64.65;;;55.76;;
66669;SDS011;53568;52.164;4.472;2023-01-25T05:12:07;62.49;;;54.88;;
66669;SDS011;53568;52.164;4.472;2023-01-25T05:14:36;63.26;;;55.31;;
66669;SDS011;53568;52.164;4.472;2023-01-25T05:17:03;64.32;;;55.59;;
66669;SDS011;53568;52.164;4.472;2023-01-25T05:19:29;63.11;;;54.77;;
66669;SDS011;53568;52.164;4.472;2023-01-25T05:21:54;61.68;;;54.04;;
66669;SDS011;53568;52.164;4.472;2023-01-25T05:24:32;61.71;;;53.75;;
66669;SDS011;53568;52.164;4.472;2023-01-25T05:26:59;60.61;;;52.58;;
66669;SDS011;53568;52.164;4.472;2023-01-25T05:29:29;60.82;;;52.95;;
66669;SDS011;53568;52.164;4.472;2023-01-25T05:32:01;60.83;;;52.66;;
66669;SDS011;53568;52.164;4.472;2023-01-25T05:34:31;59.62;;;52.19;;
66669;SDS011;53568;52.164;4.472;2023-01-25T05:36:57;59.81;;;52.26;;
66669;SDS011;53568;52.164;4.472;2023-01-25T05:39:22;58.78;;;51.38;;
66669;SDS011;53568;52.164;4.472;2023-01-25T05:41:48;58.40;;;51.31;;
66669;SDS011;53568;52.164;4.472;2023-01-25T05:44:14;60.67;;;52.03;;
66669;SDS011;53568;52.164;4.472;2023-01-25T05:46:40;60.68;;;52.11;;
66669;SDS011;53568;52.164;4.472;2023-01-25T05:49:05;61.90;;;53.19;;
66669;SDS011;53568;52.164;4.472;2023-01-25T05:51:32;64.95;;;55.23;;
66669;SDS011;53568;52.164;4.472;2023-01-25T05:54:01;62.70;;;54.55;;
66669;SDS011;53568;52.164;4.472;2023-01-25T05:56:27;64.46;;;55.60;;
66669;SDS011;53568;52.164;4.472;2023-01-25T05:58:53;62.66;;;54.07;;
66669;SDS011;53568;52.164;4.472;2023-01-25T06:01:20;63.24;;;54.70;;
66669;SDS011;53568;52.164;4.472;2023-01-25T06:03:46;63.67;;;54.78;;
66669;SDS011;53568;52.164;4.472;2023-01-25T06:06:12;65.30;;;55.53;;
66669;SDS011;53568;52.164;4.472;2023-01-25T06:08:38;65.39;;;55.44;;
66669;SDS011;53568;52.164;4.472;2023-01-25T06:11:07;64.20;;;54.98;;
66669;SDS011;53568;52.164;4.472;2023-01-25T06:13:34;66.10;;;55.91;;
66669;SDS011;53568;52.164;4.472;2023-01-25T06:16:00;64.14;;;54.89;;
66669;SDS011;53568;52.164;4.472;2023-01-25T06:18:27;65.55;;;56.48;;
66669;SDS011;53568;52.164;4.472;2023-01-25T06:20:57;66.68;;;57.44;;
66669;SDS011;53568;52.164;4.472;2023-01-25T06:23:24;65.18;;;55.68;;
66669;SDS011;53568;52.164;4.472;2023-01-25T06:25:50;65.75;;;56.80;;
66669;SDS011;53568;52.164;4.472;2023-01-25T06:28:18;67.77;;;58.01;;
66669;SDS011;53568;52.164;4.472;2023-01-25T06:30:43;66.20;;;57.14;;
66669;SDS011;53568;52.164;4.472;2023-01-25T06:33:09;64.07;;;55.68;;
66669;SDS011;53568;52.164;4.472;2023-01-25T06:35:34;66.41;;;56.95;;
66669;SDS011;53568;52.164;4.472;2023-01-25T06:38:00;68.27;;;57.85;;
66669;SDS011;53568;52.164;4.472;2023-01-25T06:40:27;68.25;;;57.93;;
66669;SDS011;53568;52.164;4.472;2023-01-25T06:42:53;66.67;;;57.11;;
66669;SDS011;53568;52.164;4.472;2023-01-25T06:45:19;69.38;;;58.57;;
66669;SDS011;53568;52.164;4.472;2023-01-25T06:47:46;67.75;;;58.15;;
66669;SDS011;53568;52.164;4.472;2023-01-25T06:50:13;67.68;;;57.67;;
66669;SDS011;53568;52.164;4.472;2023-01-25T06:52:39;70.02;;;58.36;;
66669;SDS011;53568;52.164;4.472;2023-01-25T06:55:05;69.84;;;59.24;;
66669;SDS011;53568;52.164;4.472;2023-01-25T06:57:34;70.36;;;59.94;;
66669;SDS011;53568;52.164;4.472;2023-01-25T06:59:59;72.31;;;60.15;;
66669;SDS011;53568;52.164;4.472;2023-01-25T07:02:25;73.50;;;61.78;;
66669;SDS011;53568;52.164;4.472;2023-01-25T07:04:51;73.69;;;62.05;;
66669;SDS011;53568;52.164;4.472;2023-01-25T07:07:19;75.84;;;63.39;;
66669;SDS011;53568;52.164;4.472;2023-01-25T07:09:45;74.16;;;62.66;;
66669;SDS011;53568;52.164;4.472;2023-01-25T07:12:10;77.27;;;64.34;;
66669;SDS011;53568;52.164;4.472;2023-01-25T07:14:36;80.92;;;66.52;;
66669;SDS011;53568;52.164;4.472;2023-01-25T07:17:01;81.28;;;67.12;;
66669;SDS011;53568;52.164;4.472;2023-01-25T07:19:27;77.87;;;65.52;;
66669;SDS011;53568;52.164;4.472;2023-01-25T07:21:52;80.96;;;67.24;;
66669;SDS011;53568;52.164;4.472;2023-01-25T07:24:18;79.85;;;66.52;;
66669;SDS011;53568;52.164;4.472;2023-01-25T07:26:45;84.00;;;69.01;;
66669;SDS011;53568;52.164;4.472;2023-01-25T07:29:12;82.44;;;68.21;;
66669;SDS011;53568;52.164;4.472;2023-01-25T07:31:39;81.46;;;68.28;;
66669;SDS011;53568;52.164;4.472;2023-01-25T07:34:09;78.26;;;65.88;;
66669;SDS011;53568;52.164;4.472;2023-01-25T07:36:37;79.18;;;65.54;;
66669;SDS011;53568;52.164;4.472;2023-01-25T07:39:03;81.99;;;67.01;;
66669;SDS011;53568;52.164;4.472;2023-01-25T07:41:30;78.59;;;65.60;;
66669;SDS011;53568;52.164;4.472;2023-01-25T07:43:56;79.11;;;65.58;;
66669;SDS011;53568;52.164;4.472;2023-01-25T07:46:22;82.93;;;67.93;;
66669;SDS011;53568;52.164;4.472;2023-01-25T07:48:49;83.35;;;67.92;;
66669;SDS011;53568;52.164;4.472;2023-01-25T07:51:17;83.93;;;67.99;;
66669;SDS011;53568;52.164;4.472;2023-01-25T07:53:51;81.14;;;66.79;;
66669;SDS011;53568;52.164;4.472;2023-01-25T07:56:30;81.82;;;67.70;;
66669;SDS011;53568;52.164;4.472;2023-01-25T07:59:01;78.27;;;65.40;;
66669;SDS011;53568;52.164;4.472;2023-01-25T08:01:27;79.77;;;66.07;;
66669;SDS011;53568;52.164;4.472;2023-01-25T08:03:56;78.67;;;65.41;;
66669;SDS011;53568;52.164;4.472;2023-01-25T08:06:24;77.78;;;65.26;;
66669;SDS011;53568;52.164;4.472;2023-01-25T08:09:00;79.73;;;66.23;;
66669;SDS011;53568;52.164;4.472;2023-01-25T08:11:29;80.81;;;66.74;;
66669;SDS011;53568;52.164;4.472;2023-01-25T08:13:56;80.00;;;66.72;;
66669;SDS011;53568;52.164;4.472;2023-01-25T08:16:24;77.02;;;64.89;;
66669;SDS011;53568;52.164;4.472;2023-01-25T08:18:51;76.52;;;64.54;;
66669;SDS011;53568;52.164;4.472;2023-01-25T08:21:22;76.57;;;65.33;;
66669;SDS011;53568;52.164;4.472;2023-01-25T08:23:49;74.63;;;63.80;;
66669;SDS011;53568;52.164;4.472;2023-01-25T08:26:15;77.35;;;65.46;;
66669;SDS011;53568;52.164;4.472;2023-01-25T08:28:42;77.12;;;65.04;;
66669;SDS011;53568;52.164;4.472;2023-01-25T08:31:15;78.34;;;66.28;;
66669;SDS011;53568;52.164;4.472;2023-01-25T08:33:46;78.22;;;66.32;;
66669;SDS011;53568;52.164;4.472;2023-01-25T08:36:12;80.42;;;67.58;;
66669;SDS011;53568;52.164;4.472;2023-01-25T08:38:39;81.88;;;68.31;;
66669;SDS011;53568;52.164;4.472;2023-01-25T08:41:07;79.63;;;66.95;;
66669;SDS011;53568;52.164;4.472;2023-01-25T08:43:35;81.88;;;68.23;;
66669;SDS011;53568;52.164;4.472;2023-01-25T08:46:01;82.42;;;68.61;;
66669;SDS011;53568;52.164;4.472;2023-01-25T08:48:28;80.26;;;67.37;;
66669;SDS011;53568;52.164;4.472;2023-01-25T08:50:53;79.61;;;67.33;;
66669;SDS011;53568;52.164;4.472;2023-01-25T08:53:19;80.89;;;68.02;;
66669;SDS011;53568;52.164;4.472;2023-01-25T08:55:44;82.46;;;68.59;;
66669;SDS011;53568;52.164;4.472;2023-01-25T08:58:11;83.87;;;69.38;;
66669;SDS011;53568;52.164;4.472;2023-01-25T09:00:38;79.74;;;67.38;;
66669;SDS011;53568;52.164;4.472;2023-01-25T09:03:08;80.68;;;68.33;;
66669;SDS011;53568;52.164;4.472;2023-01-25T09:05:35;81.34;;;68.27;;
66669;SDS011;53568;52.164;4.472;2023-01-25T09:08:02;82.06;;;69.12;;
66669;SDS011;53568;52.164;4.472;2023-01-25T09:10:30;82.44;;;69.28;;
66669;SDS011;53568;52.164;4.472;2023-01-25T09:12:56;79.41;;;67.61;;
66669;SDS011;53568;52.164;4.472;2023-01-25T09:15:22;79.93;;;67.60;;
66669;SDS011;53568;52.164;4.472;2023-01-25T09:17:51;78.48;;;66.67;;
66669;SDS011;53568;52.164;4.472;2023-01-25T09:20:20;78.26;;;66.01;;
66669;SDS011;53568;52.164;4.472;2023-01-25T09:22:47;76.70;;;65.79;;
66669;SDS011;53568;52.164;4.472;2023-01-25T09:25:13;78.21;;;66.58;;
66669;SDS011;53568;52.164;4.472;2023-01-25T09:27:39;77.99;;;66.59;;
66669;SDS011;53568;52.164;4.472;2023-01-25T09:30:06;78.41;;;66.28;;
66669;SDS011;53568;52.164;4.472;2023-01-25T09:32:33;76.97;;;66.17;;
66669;SDS011;53568;52.164;4.472;2023-01-25T09:34:59;76.92;;;65.84;;
66669;SDS011;53568;52.164;4.472;2023-01-25T09:37:24;78.90;;;67.03;;
66669;SDS011;53568;52.164;4.472;2023-01-25T09:39:50;79.11;;;67.45;;
66669;SDS011;53568;52.164;4.472;2023-01-25T09:42:19;79.63;;;67.32;;
66669;SDS011;53568;52.164;4.472;2023-01-25T09:46:05;77.01;;;66.46;;
66669;SDS011;53568;52.164;4.472;2023-01-25T09:47:58;79.10;;;67.82;;
66669;SDS011;53568;52.164;4.472;2023-01-25T09:53:31;78.44;;;66.63;;
66669;SDS011;53568;52.164;4.472;2023-01-25T09:56:22;77.07;;;65.65;;
66669;SDS011;53568;52.164;4.472;2023-01-25T09:58:56;78.69;;;67.07;;
66669;SDS011;53568;52.164;4.472;2023-01-25T10:01:35;76.80;;;65.96;;
66669;SDS011;53568;52.164;4.472;2023-01-25T10:04:27;79.32;;;66.61;;
66669;SDS011;53568;52.164;4.472;2023-01-25T10:10:04;75.54;;;64.41;;
66669;SDS011;53568;52.164;4.472;2023-01-25T10:12:36;75.02;;;64.32;;
66669;SDS011;53568;52.164;4.472;2023-01-25T10:15:12;75.00;;;64.37;;
66669;SDS011;53568;52.164;4.472;2023-01-25T10:17:55;75.86;;;65.39;;
66669;SDS011;53568;52.164;4.472;2023-01-25T10:20:34;72.66;;;62.96;;
66669;SDS011;53568;52.164;4.472;2023-01-25T10:31:35;73.75;;;63.64;;
66669;SDS011;53568;52.164;4.472;2023-01-25T10:34:15;74.45;;;64.33;;
66669;SDS011;53568;52.164;4.472;2023-01-25T10:36:54;75.35;;;64.89;;
66669;SDS011;53568;52.164;4.472;2023-01-25T10:39:25;76.44;;;65.90;;
66669;SDS011;53568;52.164;4.472;2023-01-25T10:41:58;75.39;;;64.94;;
66669;SDS011;53568;52.164;4.472;2023-01-25T10:44:30;79.55;;;66.90;;
66669;SDS011;53568;52.164;4.472;2023-01-25T10:49:46;71.96;;;62.18;;
66669;SDS011;53568;52.164;4.472;2023-01-25T10:52:13;75.21;;;64.33;;
66669;SDS011;53568;52.164;4.472;2023-01-25T10:54:41;73.18;;;63.10;;
66669;SDS011;53568;52.164;4.472;2023-01-25T10:57:10;73.32;;;63.56;;
66669;SDS011;53568;52.164;4.472;2023-01-25T10:59:47;76.11;;;65.02;;
66669;SDS011;53568;52.164;4.472;2023-01-25T11:02:24;76.02;;;65.29;;
66669;SDS011;53568;52.164;4.472;2023-01-25T11:07:49;77.11;;;65.36;;
66669;SDS011;53568;52.164;4.472;2023-01-25T11:15:41;78.43;;;66.60;;
66669;SDS011;53568;52.164;4.472;2023-01-25T11:18:18;76.31;;;65.45;;
66669;SDS011;53568;52.164;4.472;2023-01-25T11:20:47;76.65;;;65.39;;
66669;SDS011;53568;52.164;4.472;2023-01-25T11:23:26;73.27;;;63.51;;
66669;SDS011;53568;52.164;4.472;2023-01-25T11:25:52;75.62;;;64.88;;
66669;SDS011;53568;52.164;4.472;2023-01-25T11:28:22;76.10;;;64.52;;
66669;SDS011;53568;52.164;4.472;2023-01-25T11:30:49;75.23;;;64.68;;
66669;SDS011;53568;52.164;4.472;2023-01-25T11:33:17;76.97;;;64.98;;
66669;SDS011;53568;52.164;4.472;2023-01-25T11:35:57;77.68;;;65.64;;
66669;SDS011;53568;52.164;4.472;2023-01-25T11:38:49;76.22;;;65.05;;
66669;SDS011;53568;52.164;4.472;2023-01-25T11:52:39;78.46;;;65.83;;
66669;SDS011;53568;52.164;4.472;2023-01-25T11:55:28;77.79;;;65.30;;
66669;SDS011;53568;52.164;4.472;2023-01-25T12:06:34;74.01;;;63.10;;
66669;SDS011;53568;52.164;4.472;2023-01-25T12:09:42;74.98;;;63.25;;
66669;SDS011;53568;52.164;4.472;2023-01-25T12:12:15;75.01;;;62.09;;
66669;SDS011;53568;52.164;4.472;2023-01-25T12:20:39;74.62;;;62.53;;
66669;SDS011;53568;52.164;4.472;2023-01-25T12:31:57;74.12;;;61.73;;
66669;SDS011;53568;52.164;4.472;2023-01-25T12:34:36;74.44;;;61.85;;
66669;SDS011;53568;52.164;4.472;2023-01-25T12:37:11;73.39;;;60.95;;
66669;SDS011;53568;52.164;4.472;2023-01-25T12:39:45;72.97;;;60.83;;
66669;SDS011;53568;52.164;4.472;2023-01-25T12:42:19;74.31;;;61.60;;
66669;SDS011;53568;52.164;4.472;2023-01-25T12:47:57;73.24;;;60.82;;
66669;SDS011;53568;52.164;4.472;2023-01-25T12:50:44;74.63;;;61.41;;
66669;SDS011;53568;52.164;4.472;2023-01-25T12:55:47;78.14;;;63.59;;
66669;SDS011;53568;52.164;4.472;2023-01-25T13:01:06;73.32;;;60.20;;
66669;SDS011;53568;52.164;4.472;2023-01-25T13:12:27;73.45;;;59.70;;
66669;SDS011;53568;52.164;4.472;2023-01-25T13:14:53;74.80;;;60.83;;
66669;SDS011;53568;52.164;4.472;2023-01-25T13:17:19;74.20;;;60.26;;
66669;SDS011;53568;52.164;4.472;2023-01-25T13:19:55;74.14;;;60.23;;
66669;SDS011;53568;52.164;4.472;2023-01-25T13:27:39;74.16;;;60.36;;
66669;SDS011;53568;52.164;4.472;2023-01-25T13:35:28;72.94;;;59.13;;
66669;SDS011;53568;52.164;4.472;2023-01-25T13:40:37;71.85;;;58.89;;
66669;SDS011;53568;52.164;4.472;2023-01-25T13:43:04;71.64;;;59.05;;
66669;SDS011;53568;52.164;4.472;2023-01-25T13:45:43;72.84;;;59.42;;
66669;SDS011;53568;52.164;4.472;2023-01-25T13:48:15;72.39;;;59.41;;
66669;SDS011;53568;52.164;4.472;2023-01-25T13:55:44;71.88;;;58.84;;
66669;SDS011;53568;52.164;4.472;2023-01-25T13:58:44;70.95;;;58.22;;
66669;SDS011;53568;52.164;4.472;2023-01-25T14:01:13;72.75;;;59.30;;
66669;SDS011;53568;52.164;4.472;2023-01-25T14:03:46;71.86;;;59.02;;
66669;SDS011;53568;52.164;4.472;2023-01-25T14:06:19;74.08;;;60.27;;
66669;SDS011;53568;52.164;4.472;2023-01-25T14:08:49;74.97;;;60.45;;
66669;SDS011;53568;52.164;4.472;2023-01-25T14:11:21;72.50;;;59.43;;
66669;SDS011;53568;52.164;4.472;2023-01-25T14:14:15;74.37;;;60.20;;
66669;SDS011;53568;52.164;4.472;2023-01-25T14:16:41;72.01;;;58.73;;
66669;SDS011;53568;52.164;4.472;2023-01-25T14:19:23;70.14;;;58.01;;
66669;SDS011;53568;52.164;4.472;2023-01-25T14:25:00;74.43;;;59.80;;
66669;SDS011;53568;52.164;4.472;2023-01-25T14:27:26;73.43;;;59.17;;
66669;SDS011;53568;52.164;4.472;2023-01-25T14:29:51;71.95;;;58.74;;
66669;SDS011;53568;52.164;4.472;2023-01-25T14:32:17;72.86;;;59.08;;
66669;SDS011;53568;52.164;4.472;2023-01-25T14:34:47;69.76;;;57.63;;
66669;SDS011;53568;52.164;4.472;2023-01-25T14:37:17;75.26;;;61.42;;
66669;SDS011;53568;52.164;4.472;2023-01-25T14:39:45;73.28;;;59.03;;
66669;SDS011;53568;52.164;4.472;2023-01-25T14:42:13;85.64;;;69.40;;
66669;SDS011;53568;52.164;4.472;2023-01-25T14:44:41;77.25;;;62.40;;
66669;SDS011;53568;52.164;4.472;2023-01-25T14:47:21;73.61;;;59.41;;
66669;SDS011;53568;52.164;4.472;2023-01-25T14:53:04;74.56;;;59.96;;
66669;SDS011;53568;52.164;4.472;2023-01-25T14:55:31;74.42;;;60.55;;
66669;SDS011;53568;52.164;4.472;2023-01-25T14:57:58;74.79;;;60.65;;
66669;SDS011;53568;52.164;4.472;2023-01-25T15:00:26;72.00;;;58.78;;
66669;SDS011;53568;52.164;4.472;2023-01-25T15:02:56;73.33;;;59.71;;
66669;SDS011;53568;52.164;4.472;2023-01-25T15:05:25;71.72;;;58.64;;
66669;SDS011;53568;52.164;4.472;2023-01-25T15:07:54;73.40;;;59.29;;
66669;SDS011;53568;52.164;4.472;2023-01-25T15:10:21;73.96;;;59.59;;
66669;SDS011;53568;52.164;4.472;2023-01-25T15:13:33;71.43;;;58.42;;
66669;SDS011;53568;52.164;4.472;2023-01-25T15:15:47;74.21;;;60.12;;
66669;SDS011;53568;52.164;4.472;2023-01-25T15:21:31;72.17;;;58.90;;
66669;SDS011;53568;52.164;4.472;2023-01-25T15:23:58;70.61;;;57.89;;
66669;SDS011;53568;52.164;4.472;2023-01-25T15:26:31;72.85;;;59.15;;
66669;SDS011;53568;52.164;4.472;2023-01-25T15:28:59;75.71;;;60.40;;
66669;SDS011;53568;52.164;4.472;2023-01-25T15:31:35;77.52;;;61.44;;
66669;SDS011;53568;52.164;4.472;2023-01-25T15:34:01;74.84;;;60.35;;
66669;SDS011;53568;52.164;4.472;2023-01-25T15:36:29;74.47;;;60.17;;
66669;SDS011;53568;52.164;4.472;2023-01-25T15:38:56;71.56;;;58.36;;
66669;SDS011;53568;52.164;4.472;2023-01-25T15:41:22;72.69;;;58.82;;
66669;SDS011;53568;52.164;4.472;2023-01-25T15:43:48;73.71;;;58.66;;
66669;SDS011;53568;52.164;4.472;2023-01-25T15:46:15;73.59;;;58.47;;
66669;SDS011;53568;52.164;4.472;2023-01-25T15:48:53;74.69;;;59.76;;
66669;SDS011;53568;52.164;4.472;2023-01-25T15:51:19;69.22;;;56.69;;
66669;SDS011;53568;52.164;4.472;2023-01-25T15:53:45;71.44;;;58.33;;
66669;SDS011;53568;52.164;4.472;2023-01-25T15:56:12;74.08;;;59.40;;
66669;SDS011;53568;52.164;4.472;2023-01-25T15:58:43;72.29;;;58.19;;
66669;SDS011;53568;52.164;4.472;2023-01-25T16:01:15;72.06;;;57.90;;
66669;SDS011;53568;52.164;4.472;2023-01-25T16:03:41;71.85;;;57.87;;
66669;SDS011;53568;52.164;4.472;2023-01-25T16:09:02;72.49;;;58.28;;
66669;SDS011;53568;52.164;4.472;2023-01-25T16:11:36;72.14;;;58.60;;
66669;SDS011;53568;52.164;4.472;2023-01-25T16:14:02;74.97;;;60.03;;
66669;SDS011;53568;52.164;4.472;2023-01-25T16:16:27;72.90;;;59.23;;
66669;SDS011;53568;52.164;4.472;2023-01-25T16:18:53;76.18;;;60.99;;
66669;SDS011;53568;52.164;4.472;2023-01-25T16:21:18;72.82;;;59.52;;
66669;SDS011;53568;52.164;4.472;2023-01-25T16:23:44;73.19;;;59.07;;
66669;SDS011;53568;52.164;4.472;2023-01-25T16:26:31;74.96;;;60.04;;
66669;SDS011;53568;52.164;4.472;2023-01-25T16:28:55;73.80;;;59.13;;
66669;SDS011;53568;52.164;4.472;2023-01-25T16:31:21;71.61;;;58.16;;
66669;SDS011;53568;52.164;4.472;2023-01-25T16:33:47;71.98;;;58.62;;
66669;SDS011;53568;52.164;4.472;2023-01-25T16:36:20;74.33;;;60.22;;